Mobile, Alabama
Current Conditions -  °F | °C
As of 2:53 PM on Saturday 20 Dec 2014 (Local Time) from KBFM Reporting Station
Overcast Overcast  
Wind Chill: 52°   Ceiling: 700
Heat Index: 52°   Visibility: 10mi
Dew Point: 48°   Wind: 12mph
Humidity: 86%   Direction: 10°N
Pressure: 30.12"   Gusts: NA
Location:  30.69°N, 88.05°W
Report Text: KBFM 202053Z AUTO 01010KT 10SM OVC007 11/09 A3012 RMK AO2 SLP197 T01110089 56010
Loading
Personal Weather Stations






























Interactive Weather Map New forecast layout! Learn more

10-Day Weather Forecast

Advertisements
Track Severe Weather on mobile